KMDH/MDH METAR and TAF weather

Enter ICAO airport designator
Station Type Date Time Source
KMDH METAR 2022/01/19 18:52 UTC NOAA

KMDH 191852Z 36014G24KT 10SM OVC055 01/M04 A3011 RMK AO2 PK WND 34028/1841 RAB00E22 SLP197 P0000 T00111044


Station Type Date Time Source
KMDH Decoded METAR 2022/01/19 18:52 UTC NOAA

SOUTHERN ILLINOIS AIRPORT, IL, United States (KMDH) 37-47N 089-15W 130M
Jan 19, 2022 - 01:52 PM EST / 2022.01.19 1852 UTC
Wind: from the N (360 degrees) at 16 MPH (14 KT) gusting to 28 MPH (24 KT):0
Visibility: 10 mile(s):0
Sky conditions: overcast
Precipitation last hour: A trace
Temperature: 34.0 F (1.1 C)
Windchill: 23 F (-5 C):1
Dew Point: 24.1 F (-4.4 C)
Relative Humidity: 66%
Pressure (altimeter): 30.11 in. Hg (1019 hPa)
ob: KMDH 191852Z 36014G24KT 10SM OVC055 01/M04 A3011 RMK AO2 PK WND 34028/1841 RAB00E22 SLP197 P0000 T00111044
cycle: 19

Station Type Date Time Source
KMDH TAF UTC NOAA

Error!

Example: see airport list